Terminal Aerodrome Forecast
Issued by NWS

Home | Current Version | Previous Version | Text Only | Print | Product List | Glossary On
Versions: 1 2 3 4 5 6 7 8 9 10 11 12 13 14 15 16 17 18 19 20 21 22 23 24 25
000
FTAK31 PANC 272332
TAFADQ
TAF
PADQ 272332Z 2800/2824 10015KT 5SM -RA OVC005
      TEMPO 2800/2803 2SM RA
     FM280300 VRB06KT 3SM -RA BKN005 OVC010
     FM280900 35006KT 5SM -SHRA BR OVC010
     FM281800 31011KT P6SM -SHRA OVC035=

USA.gov is the U.S. government's official web portal to all federal, state and local government web resources and services.